createdAt,value
2019-01-25T00:01:11.743Z,98599.00
2019-01-25T00:03:48.624Z,98587.00
2019-01-25T00:06:25.696Z,98592.00
2019-01-25T00:09:02.482Z,98597.00
2019-01-25T00:11:41.597Z,98584.00
2019-01-25T00:14:19.555Z,98592.00
2019-01-25T00:16:56.382Z,98597.00
2019-01-25T00:19:33.356Z,98592.00
2019-01-25T00:22:10.352Z,98587.00
2019-01-25T00:24:48.243Z,98594.00
2019-01-25T00:27:25.120Z,98598.00
2019-01-25T00:30:02.011Z,98589.00
2019-01-25T00:32:38.887Z,98600.00
2019-01-25T00:35:15.659Z,98595.00
2019-01-25T00:37:52.540Z,98593.00
2019-01-25T00:40:29.515Z,98599.00
2019-01-25T00:43:06.291Z,98592.00
2019-01-25T00:45:43.174Z,98591.00
2019-01-25T00:48:20.155Z,98593.00
2019-01-25T00:50:57.127Z,98587.00
2019-01-25T00:53:34.215Z,98588.00
2019-01-25T00:56:10.994Z,98588.00
2019-01-25T00:58:47.966Z,98590.00
2019-01-25T01:01:24.957Z,98581.00
2019-01-25T01:04:01.726Z,98595.00
2019-01-25T01:06:39.002Z,98582.00
2019-01-25T01:09:15.779Z,98588.00
2019-01-25T01:11:52.768Z,98591.00
2019-01-25T01:14:29.852Z,98593.00
2019-01-25T01:17:06.831Z,98599.00
2019-01-25T01:19:44.315Z,98598.00
2019-01-25T01:22:21.192Z,98592.00
2019-01-25T01:24:58.183Z,98585.00
2019-01-25T01:27:34.964Z,98593.00
2019-01-25T01:30:16.441Z,98593.00
2019-01-25T01:32:53.218Z,98589.00
2019-01-25T01:35:30.204Z,98594.00
2019-01-25T01:38:07.180Z,98579.00
2019-01-25T01:40:44.152Z,98584.00
2019-01-25T01:43:21.964Z,98569.00
2019-01-25T01:45:58.724Z,98571.00
2019-01-25T01:48:35.619Z,98573.00
2019-01-25T01:51:12.694Z,98558.00
2019-01-25T01:53:49.986Z,98561.00
2019-01-25T01:56:26.853Z,98564.00
2019-01-25T01:59:03.732Z,98571.00
2019-01-25T02:01:40.623Z,98563.00
2019-01-25T02:04:17.598Z,98558.00
2019-01-25T02:06:54.377Z,98555.00
2019-01-25T02:09:31.547Z,98557.00
2019-01-25T02:12:08.324Z,98561.00
2019-01-25T02:14:46.123Z,98552.00
2019-01-25T02:17:23.119Z,98559.00
2019-01-25T02:19:59.887Z,98550.00
2019-01-25T02:22:36.757Z,98563.00
2019-01-25T02:25:13.554Z,98540.00
2019-01-25T02:27:50.630Z,98540.00
2019-01-25T02:30:27.705Z,98548.00
2019-01-25T02:33:05.608Z,98543.00
2019-01-25T02:35:42.495Z,98545.00
2019-01-25T02:38:19.687Z,98549.00
2019-01-25T02:40:56.452Z,98557.00
2019-01-25T02:43:33.334Z,98553.00
2019-01-25T02:46:10.210Z,98536.00
2019-01-25T02:48:46.983Z,98541.00
2019-01-25T02:51:23.852Z,98548.00
2019-01-25T02:54:01.246Z,98542.00
2019-01-25T02:56:38.131Z,98537.00
2019-01-25T02:59:15.103Z,98539.00
2019-01-25T03:01:51.830Z,98552.00
2019-01-25T03:04:28.552Z,98540.00
2019-01-25T03:07:05.538Z,98543.00
2019-01-25T03:09:42.408Z,98540.00
2019-01-25T03:12:19.303Z,98526.00
2019-01-25T03:14:56.270Z,98519.00
2019-01-25T03:17:33.256Z,98528.00
2019-01-25T03:20:16.055Z,98513.00
2019-01-25T03:22:53.470Z,98530.00
2019-01-25T03:25:30.445Z,98524.00
2019-01-25T03:28:07.341Z,98538.00
2019-01-25T03:30:44.190Z,98517.00
2019-01-25T03:33:21.221Z,98521.00
2019-01-25T03:35:58.057Z,98537.00
2019-01-25T03:38:34.928Z,98528.00
2019-01-25T03:41:11.804Z,98536.00
2019-01-25T03:43:48.591Z,98527.00
2019-01-25T03:46:25.569Z,98536.00
2019-01-25T03:49:02.347Z,98542.00
2019-01-25T03:51:39.320Z,98536.00
2019-01-25T03:54:16.300Z,98524.00
2019-01-25T03:56:53.084Z,98517.00
2019-01-25T03:59:30.369Z,98534.00
2019-01-25T04:02:07.346Z,98523.00
2019-01-25T04:04:44.215Z,98534.00
2019-01-25T04:07:21.109Z,98526.00
2019-01-25T04:09:57.978Z,98525.00
2019-01-25T04:12:34.851Z,98520.00
2019-01-25T04:15:24.453Z,98526.00
2019-01-25T04:18:01.201Z,98516.00
2019-01-25T04:20:37.980Z,98523.00
2019-01-25T04:23:15.175Z,98524.00
2019-01-25T04:25:52.046Z,98529.00
2019-01-25T04:28:28.859Z,98537.00
2019-01-25T04:31:06.729Z,98540.00
2019-01-25T04:33:43.608Z,98535.00
2019-01-25T04:36:20.479Z,98551.00
2019-01-25T04:38:57.365Z,98552.00
2019-01-25T04:41:34.235Z,98552.00
2019-01-25T04:44:11.207Z,98547.00
2019-01-25T04:46:48.011Z,98538.00
2019-01-25T04:49:24.863Z,98552.00
2019-01-25T04:52:01.754Z,98554.00
2019-01-25T04:54:38.629Z,98555.00
2019-01-25T04:57:15.511Z,98553.00
2019-01-25T04:59:52.272Z,98556.00
2019-01-25T05:02:29.087Z,98552.00
2019-01-25T05:05:06.751Z,98552.00
2019-01-25T05:07:43.635Z,98566.00
2019-01-25T05:10:20.931Z,98555.00
2019-01-25T05:12:57.685Z,98567.00
2019-01-25T05:15:34.577Z,98568.00
2019-01-25T05:18:11.444Z,98569.00
2019-01-25T05:20:48.434Z,98572.00
2019-01-25T05:23:25.209Z,98559.00
2019-01-25T05:26:01.982Z,98571.00
2019-01-25T05:28:38.760Z,98577.00
2019-01-25T05:31:15.599Z,98577.00
2019-01-25T05:33:52.454Z,98568.00
2019-01-25T05:36:29.200Z,98576.00
2019-01-25T05:39:07.881Z,98573.00
2019-01-25T05:41:45.596Z,98571.00
2019-01-25T05:44:23.878Z,98570.00
2019-01-25T05:47:00.719Z,98568.00
2019-01-25T05:49:39.029Z,98575.00
2019-01-25T05:52:19.202Z,98577.00
2019-01-25T05:54:56.098Z,98580.00
2019-01-25T05:57:32.877Z,98568.00
2019-01-25T06:00:13.215Z,98585.00
2019-01-25T06:02:50.114Z,98596.00
2019-01-25T06:05:26.927Z,98603.00
2019-01-25T06:08:08.194Z,98603.00
2019-01-25T06:10:44.984Z,98593.00
2019-01-25T06:13:21.730Z,98593.00
2019-01-25T06:15:58.455Z,98575.00
2019-01-25T06:18:35.257Z,98592.00
2019-01-25T06:21:12.276Z,98598.00
2019-01-25T06:23:50.582Z,98584.00
2019-01-25T06:26:27.332Z,98604.00
2019-01-25T06:29:04.044Z,98589.00
2019-01-25T06:31:40.875Z,98606.00
2019-01-25T06:34:17.606Z,98598.00
2019-01-25T06:36:54.395Z,98604.00
2019-01-25T06:39:31.121Z,98586.00
2019-01-25T06:42:08.095Z,98606.00
2019-01-25T06:44:44.954Z,98586.00
2019-01-25T06:47:24.457Z,98591.00
2019-01-25T06:50:01.328Z,98595.00
2019-01-25T06:52:38.038Z,98588.00
2019-01-25T06:55:15.039Z,98595.00
2019-01-25T06:57:56.170Z,98592.00
2019-01-25T07:00:34.991Z,98594.00
2019-01-25T07:03:12.639Z,98596.00
2019-01-25T07:05:49.739Z,98598.00
2019-01-25T07:08:26.641Z,98594.00
2019-01-25T07:11:03.828Z,98596.00
2019-01-25T07:13:40.619Z,98582.00
2019-01-25T07:16:17.491Z,98590.00
2019-01-25T07:18:54.488Z,98591.00
2019-01-25T07:21:31.244Z,98599.00
2019-01-25T07:24:07.994Z,98609.00
2019-01-25T07:26:44.826Z,98607.00
2019-01-25T07:29:21.678Z,98609.00
2019-01-25T07:31:58.445Z,98622.00
2019-01-25T07:34:35.853Z,98612.00
2019-01-25T07:37:12.533Z,98634.00
2019-01-25T07:39:49.317Z,98628.00
2019-01-25T07:42:26.197Z,98632.00
2019-01-25T07:45:02.972Z,98636.00
2019-01-25T07:47:39.902Z,98627.00
2019-01-25T07:50:16.755Z,98638.00
2019-01-25T07:52:53.542Z,98646.00
2019-01-25T07:55:30.263Z,98643.00
2019-01-25T07:58:06.990Z,98628.00
2019-01-25T08:00:43.697Z,98646.00
2019-01-25T08:03:20.539Z,98652.00
2019-01-25T08:05:57.245Z,98656.00
2019-01-25T08:08:34.020Z,98650.00
2019-01-25T08:11:11.011Z,98656.00
2019-01-25T08:13:48.011Z,98670.00
2019-01-25T08:16:25.184Z,98671.00
2019-01-25T08:19:02.066Z,98661.00
2019-01-25T08:21:38.979Z,98669.00
2019-01-25T08:24:15.797Z,98680.00
2019-01-25T08:26:52.517Z,98665.00
2019-01-25T08:29:29.269Z,98686.00
2019-01-25T08:32:06.157Z,98678.00
2019-01-25T08:34:42.939Z,98694.00
2019-01-25T08:37:19.719Z,98700.00
2019-01-25T08:39:59.236Z,98702.00
2019-01-25T08:42:36.206Z,98701.00
2019-01-25T08:45:16.401Z,98691.00
2019-01-25T08:47:53.216Z,98709.00
2019-01-25T08:50:30.149Z,98707.00
2019-01-25T08:53:07.075Z,98715.00
2019-01-25T08:55:43.937Z,98700.00
2019-01-25T08:58:21.154Z,98716.00
2019-01-25T09:00:57.984Z,98726.00
2019-01-25T09:03:34.859Z,98716.00
2019-01-25T09:06:11.674Z,98721.00
2019-01-25T09:08:48.474Z,98713.00
2019-01-25T09:11:26.292Z,98714.00
2019-01-25T09:14:03.052Z,98718.00
2019-01-25T09:16:39.769Z,98714.00
2019-01-25T09:19:16.458Z,98719.00
2019-01-25T09:21:53.303Z,98732.00
2019-01-25T09:24:30.067Z,98746.00
2019-01-25T09:27:07.012Z,98757.00
2019-01-25T09:29:43.736Z,98754.00
2019-01-25T09:32:20.630Z,98756.00
2019-01-25T09:34:57.402Z,98754.00
2019-01-25T09:37:34.232Z,98762.00
2019-01-25T09:40:15.313Z,98766.00
2019-01-25T09:42:52.741Z,98780.00
2019-01-25T09:45:29.530Z,98775.00
2019-01-25T09:48:07.573Z,98767.00
2019-01-25T09:50:44.282Z,98768.00
2019-01-25T09:53:21.138Z,98761.00
2019-01-25T09:55:57.892Z,98757.00
2019-01-25T09:58:35.373Z,98764.00
2019-01-25T10:01:12.268Z,98751.00
2019-01-25T10:03:49.039Z,98758.00
2019-01-25T10:06:25.821Z,98761.00
2019-01-25T10:09:03.516Z,98760.00
2019-01-25T10:11:40.530Z,98754.00
2019-01-25T10:14:17.528Z,98752.00
2019-01-25T10:16:54.210Z,98762.00
2019-01-25T10:19:30.947Z,98772.00
2019-01-25T10:22:08.784Z,98757.00
2019-01-25T10:24:45.726Z,98753.00
2019-01-25T10:27:22.721Z,98756.00
2019-01-25T10:29:59.458Z,98758.00
2019-01-25T10:32:36.437Z,98772.00
2019-01-25T10:35:13.714Z,98780.00
2019-01-25T10:37:50.913Z,98766.00
2019-01-25T10:40:28.001Z,98772.00
2019-01-25T10:43:05.203Z,98763.00
2019-01-25T10:45:44.310Z,98766.00
2019-01-25T10:48:21.085Z,98780.00
2019-01-25T10:50:58.059Z,98769.00
2019-01-25T10:53:34.951Z,98765.00
2019-01-25T10:56:11.922Z,98765.00
2019-01-25T10:58:48.687Z,98762.00
2019-01-25T11:01:25.674Z,98754.00
2019-01-25T11:04:02.453Z,98756.00
2019-01-25T11:06:39.322Z,98755.00
2019-01-25T11:09:16.104Z,98737.00
2019-01-25T11:11:53.120Z,98727.00
2019-01-25T11:14:29.966Z,98729.00
2019-01-25T11:17:06.949Z,98720.00
2019-01-25T11:19:43.829Z,98723.00
2019-01-25T11:22:20.773Z,98712.00
2019-01-25T11:24:57.468Z,98724.00
2019-01-25T11:27:34.248Z,98727.00
2019-01-25T11:30:15.451Z,98719.00
2019-01-25T11:32:52.304Z,98724.00
2019-01-25T11:35:29.085Z,98722.00
2019-01-25T11:38:05.953Z,98729.00
2019-01-25T11:40:44.314Z,98733.00
2019-01-25T11:43:21.245Z,98721.00
2019-01-25T11:45:58.032Z,98720.00
2019-01-25T11:48:34.815Z,98722.00
2019-01-25T11:51:11.993Z,98730.00
2019-01-25T11:53:48.762Z,98724.00
2019-01-25T11:56:25.744Z,98725.00
2019-01-25T11:59:02.726Z,98733.00
2019-01-25T12:01:39.607Z,98709.00
2019-01-25T12:04:16.330Z,98721.00
2019-01-25T12:06:53.249Z,98718.00
2019-01-25T12:09:30.031Z,98739.00
2019-01-25T12:12:06.917Z,98728.00
2019-01-25T12:14:43.691Z,98729.00
2019-01-25T12:17:21.490Z,98725.00
2019-01-25T12:19:58.471Z,98732.00
2019-01-25T12:22:35.256Z,98738.00
2019-01-25T12:25:13.663Z,98729.00
2019-01-25T12:27:50.643Z,98730.00
2019-01-25T12:30:38.163Z,98760.00
2019-01-25T12:33:16.278Z,98752.00
2019-01-25T12:35:53.265Z,98759.00
2019-01-25T12:38:30.138Z,98764.00
2019-01-25T12:41:07.127Z,98778.00
2019-01-25T12:43:43.993Z,98771.00
2019-01-25T12:46:21.067Z,98767.00
2019-01-25T12:48:57.837Z,98771.00
2019-01-25T12:51:35.438Z,98753.00
2019-01-25T12:54:12.328Z,98753.00
2019-01-25T12:56:49.301Z,98743.00
2019-01-25T12:59:26.081Z,98747.00
2019-01-25T13:02:02.969Z,98739.00
2019-01-25T13:04:39.940Z,98757.00
2019-01-25T13:07:16.920Z,98750.00
2019-01-25T13:09:53.794Z,98748.00
2019-01-25T13:12:30.883Z,98754.00
2019-01-25T13:15:10.063Z,98758.00
2019-01-25T13:17:46.874Z,98755.00
2019-01-25T13:20:29.420Z,98769.00
2019-01-25T13:23:06.159Z,98769.00
2019-01-25T13:26:14.702Z,98791.00
2019-01-25T13:28:58.690Z,98794.00
2019-01-25T13:31:41.670Z,98780.00
2019-01-25T13:34:18.650Z,98782.00
2019-01-25T13:36:57.156Z,98793.00
2019-01-25T13:39:34.233Z,98798.00
2019-01-25T13:42:11.115Z,98813.00
2019-01-25T13:44:47.987Z,98810.00
2019-01-25T13:47:24.766Z,98814.00
2019-01-25T13:50:02.047Z,98809.00
2019-01-25T13:52:38.829Z,98815.00
2019-01-25T13:55:16.958Z,98813.00
2019-01-25T13:57:53.827Z,98804.00
2019-01-25T14:00:35.715Z,98803.00
2019-01-25T14:03:12.490Z,98809.00
2019-01-25T14:05:49.371Z,98782.00
2019-01-25T14:08:26.129Z,98793.00
2019-01-25T14:11:02.931Z,98799.00
2019-01-25T14:13:46.656Z,98793.00
2019-01-25T14:16:18.299Z,98793.00
2019-01-25T14:18:55.183Z,98771.00
2019-01-25T14:21:32.124Z,98792.00
2019-01-25T14:24:08.908Z,98805.00
2019-01-25T14:26:45.763Z,98804.00
2019-01-25T14:29:22.561Z,98816.00
2019-01-25T14:31:59.335Z,98811.00
2019-01-25T14:34:36.543Z,98792.00
2019-01-25T14:37:13.354Z,98792.00
2019-01-25T14:39:50.129Z,98803.00
2019-01-25T14:42:27.154Z,98807.00
2019-01-25T14:45:05.254Z,98818.00
2019-01-25T14:47:42.063Z,98816.00
2019-01-25T14:50:22.241Z,98808.00
2019-01-25T14:52:59.165Z,98817.00
2019-01-25T14:55:35.950Z,98829.00
2019-01-25T14:58:12.674Z,98826.00
2019-01-25T15:00:49.551Z,98822.00
2019-01-25T15:03:26.364Z,98828.00
2019-01-25T15:06:03.234Z,98836.00
2019-01-25T15:08:40.190Z,98824.00
2019-01-25T15:11:17.044Z,98839.00
2019-01-25T15:13:53.861Z,98838.00
2019-01-25T15:16:30.580Z,98822.00
2019-01-25T15:19:07.346Z,98842.00
2019-01-25T15:21:44.146Z,98812.00
2019-01-25T15:24:21.003Z,98818.00
2019-01-25T15:26:57.818Z,98823.00
2019-01-25T15:29:34.574Z,98825.00
2019-01-25T15:32:11.367Z,98812.00
2019-01-25T15:34:48.176Z,98818.00
2019-01-25T15:37:24.890Z,98799.00
2019-01-25T15:40:01.857Z,98820.00
2019-01-25T15:42:38.814Z,98814.00
2019-01-25T15:45:18.219Z,98819.00
2019-01-25T15:47:55.000Z,98835.00
2019-01-25T15:50:32.453Z,98834.00
2019-01-25T15:53:09.338Z,98816.00
2019-01-25T15:55:46.111Z,98837.00
2019-01-25T15:58:22.830Z,98831.00
2019-01-25T16:00:59.625Z,98835.00
2019-01-25T16:03:36.451Z,98835.00
2019-01-25T16:06:13.236Z,98848.00
2019-01-25T16:08:50.215Z,98857.00
2019-01-25T16:11:26.970Z,98848.00
2019-01-25T16:14:03.758Z,98848.00
2019-01-25T16:16:40.932Z,98844.00
2019-01-25T16:19:17.756Z,98854.00
2019-01-25T16:21:54.558Z,98846.00
2019-01-25T16:24:31.858Z,98841.00
2019-01-25T16:27:08.645Z,98845.00
2019-01-25T16:29:45.904Z,98856.00
2019-01-25T16:32:22.822Z,98849.00
2019-01-25T16:34:59.716Z,98838.00
2019-01-25T16:37:36.419Z,98846.00
2019-01-25T16:40:22.752Z,98859.00
2019-01-25T16:42:59.571Z,98851.00
2019-01-25T16:45:40.498Z,98851.00
2019-01-25T16:48:17.238Z,98854.00
2019-01-25T16:50:54.080Z,98841.00
2019-01-25T16:53:31.173Z,98853.00
2019-01-25T16:56:07.880Z,98864.00
2019-01-25T16:58:44.697Z,98867.00
2019-01-25T17:01:21.632Z,98858.00
2019-01-25T17:04:36.855Z,98855.00
2019-01-25T17:07:31.136Z,98859.00
2019-01-25T17:10:26.086Z,98872.00
2019-01-25T17:13:02.990Z,98861.00
2019-01-25T17:15:39.795Z,98860.00
2019-01-25T17:18:16.674Z,98858.00
2019-01-25T17:20:53.444Z,98853.00
2019-01-25T17:23:30.320Z,98856.00
2019-01-25T17:26:08.214Z,98838.00
2019-01-25T17:28:45.092Z,98843.00
2019-01-25T17:31:22.805Z,98840.00
2019-01-25T17:33:59.656Z,98853.00
2019-01-25T17:36:36.415Z,98847.00
2019-01-25T17:39:15.312Z,98837.00
2019-01-25T17:41:52.569Z,98839.00
2019-01-25T17:44:31.226Z,98842.00
2019-01-25T17:47:08.079Z,98827.00
2019-01-25T17:49:44.967Z,98839.00
2019-01-25T17:52:21.824Z,98838.00
2019-01-25T17:54:58.613Z,98834.00
2019-01-25T17:57:35.394Z,98826.00
2019-01-25T18:00:44.545Z,98828.00
2019-01-25T18:03:21.456Z,98817.00
2019-01-25T18:05:58.643Z,98834.00
2019-01-25T18:08:35.469Z,98829.00
2019-01-25T18:11:13.198Z,98838.00
2019-01-25T18:13:49.947Z,98837.00
2019-01-25T18:16:26.694Z,98841.00
2019-01-25T18:19:03.462Z,98858.00
2019-01-25T18:21:40.350Z,98844.00
2019-01-25T18:24:17.228Z,98858.00
2019-01-25T18:26:54.075Z,98851.00
2019-01-25T18:29:30.925Z,98853.00
2019-01-25T18:32:08.676Z,98840.00
2019-01-25T18:34:45.564Z,98838.00
2019-01-25T18:37:22.285Z,98845.00
2019-01-25T18:39:59.184Z,98843.00
2019-01-25T18:42:36.221Z,98853.00
2019-01-25T18:45:13.061Z,98848.00
2019-01-25T18:47:52.076Z,98864.00
2019-01-25T18:50:28.863Z,98859.00
2019-01-25T18:53:07.899Z,98856.00
2019-01-25T18:55:44.679Z,98862.00
2019-01-25T18:58:22.469Z,98859.00
2019-01-25T19:00:59.245Z,98848.00
2019-01-25T19:03:36.440Z,98844.00
2019-01-25T19:06:14.025Z,98848.00
2019-01-25T19:08:50.805Z,98847.00
2019-01-25T19:11:27.679Z,98834.00
2019-01-25T19:14:04.567Z,98832.00
2019-01-25T19:16:41.447Z,98849.00
2019-01-25T19:19:18.218Z,98845.00
2019-01-25T19:21:55.402Z,98837.00
2019-01-25T19:24:32.116Z,98851.00
2019-01-25T19:27:08.843Z,98834.00
2019-01-25T19:29:46.853Z,98843.00
2019-01-25T19:32:23.832Z,98855.00
2019-01-25T19:35:00.713Z,98853.00
2019-01-25T19:37:37.593Z,98833.00
2019-01-25T19:40:18.783Z,98828.00
2019-01-25T19:42:55.859Z,98826.00
2019-01-25T19:45:32.726Z,98844.00
2019-01-25T19:48:09.610Z,98843.00
2019-01-25T19:50:46.387Z,98852.00
2019-01-25T19:53:23.739Z,98836.00
2019-01-25T19:56:00.646Z,98852.00
2019-01-25T19:58:37.933Z,98837.00
2019-01-25T20:01:14.888Z,98845.00
2019-01-25T20:03:51.899Z,98861.00
2019-01-25T20:06:28.885Z,98854.00
2019-01-25T20:09:08.117Z,98861.00
2019-01-25T20:11:46.216Z,98864.00
2019-01-25T20:14:22.999Z,98860.00
2019-01-25T20:17:00.898Z,98879.00
2019-01-25T20:19:38.276Z,98868.00
2019-01-25T20:22:15.263Z,98846.00
2019-01-25T20:24:52.242Z,98857.00
2019-01-25T20:27:29.231Z,98854.00
2019-01-25T20:30:16.449Z,98867.00
2019-01-25T20:32:53.432Z,98871.00
2019-01-25T20:35:37.157Z,98863.00
2019-01-25T20:38:14.139Z,98865.00
2019-01-25T20:40:52.040Z,98856.00
2019-01-25T20:43:29.032Z,98862.00
2019-01-25T20:46:06.720Z,98864.00
2019-01-25T20:48:43.713Z,98845.00
2019-01-25T20:51:20.488Z,98847.00
2019-01-25T20:53:57.351Z,98870.00
2019-01-25T20:56:34.269Z,98868.00
2019-01-25T20:59:11.224Z,98848.00
2019-01-25T21:01:48.202Z,98852.00
2019-01-25T21:04:24.973Z,98862.00
2019-01-25T21:07:01.955Z,98850.00
2019-01-25T21:09:38.829Z,98857.00
2019-01-25T21:12:15.713Z,98867.00
2019-01-25T21:14:54.539Z,98876.00
2019-01-25T21:17:31.403Z,98867.00
2019-01-25T21:20:13.713Z,98865.00
2019-01-25T21:22:50.586Z,98866.00
2019-01-25T21:25:27.367Z,98851.00
2019-01-25T21:28:04.404Z,98843.00
2019-01-25T21:30:42.357Z,98843.00
2019-01-25T21:33:19.240Z,98850.00
2019-01-25T21:35:56.007Z,98841.00
2019-01-25T21:38:33.088Z,98836.00
2019-01-25T21:41:10.581Z,98839.00
2019-01-25T21:43:47.352Z,98834.00
2019-01-25T21:46:24.338Z,98841.00
2019-01-25T21:49:02.248Z,98835.00
2019-01-25T21:51:39.248Z,98835.00
2019-01-25T21:54:18.154Z,98834.00
2019-01-25T21:56:54.917Z,98825.00
2019-01-25T21:59:31.694Z,98832.00
2019-01-25T22:02:08.477Z,98843.00
2019-01-25T22:04:46.788Z,98832.00
2019-01-25T22:07:23.571Z,98836.00
2019-01-25T22:10:00.543Z,98827.00
2019-01-25T22:12:38.761Z,98819.00
2019-01-25T22:15:18.292Z,98826.00
2019-01-25T22:17:56.101Z,98808.00
2019-01-25T22:20:34.509Z,98816.00
2019-01-25T22:23:11.481Z,98807.00
2019-01-25T22:25:48.476Z,98807.00
2019-01-25T22:28:25.454Z,98795.00
2019-01-25T22:31:02.225Z,98794.00
2019-01-25T22:33:39.211Z,98796.00
2019-01-25T22:36:16.073Z,98776.00
2019-01-25T22:38:53.060Z,98771.00
2019-01-25T22:41:29.948Z,98780.00
2019-01-25T22:44:06.714Z,98778.00
2019-01-25T22:46:43.700Z,98769.00
2019-01-25T22:49:20.478Z,98756.00
2019-01-25T22:51:57.350Z,98755.00
2019-01-25T22:54:34.339Z,98750.00
2019-01-25T22:57:11.120Z,98737.00
2019-01-25T22:59:49.118Z,98756.00
2019-01-25T23:02:26.093Z,98746.00
2019-01-25T23:05:28.979Z,98731.00
2019-01-25T23:08:06.153Z,98741.00
2019-01-25T23:10:43.051Z,98726.00
2019-01-25T23:13:20.946Z,98725.00
2019-01-25T23:16:06.150Z,98734.00
2019-01-25T23:18:37.459Z,98723.00
2019-01-25T23:21:15.573Z,98728.00
2019-01-25T23:23:52.430Z,98718.00
2019-01-25T23:26:29.424Z,98734.00
2019-01-25T23:29:06.298Z,98740.00
2019-01-25T23:31:43.186Z,98712.00
2019-01-25T23:34:20.060Z,98720.00
2019-01-25T23:36:57.956Z,98707.00
2019-01-25T23:39:34.739Z,98717.00
2019-01-25T23:42:11.626Z,98706.00
2019-01-25T23:44:48.604Z,98686.00
2019-01-25T23:47:26.591Z,98691.00
2019-01-25T23:50:05.014Z,98700.00
2019-01-25T23:52:41.885Z,98688.00
2019-01-25T23:55:18.820Z,98698.00
2019-01-25T23:57:55.845Z,98709.00
